createdAt,value
2018-03-06T00:00:05.170Z,94723.64
2018-03-06T00:02:31.241Z,94725.46
2018-03-06T00:04:57.376Z,94719.68
2018-03-06T00:07:23.385Z,94721.58
2018-03-06T00:09:49.426Z,94722.36
2018-03-06T00:12:15.430Z,94724.48
2018-03-06T00:14:41.461Z,94732.12
2018-03-06T00:17:07.447Z,94723.66
2018-03-06T00:19:33.497Z,94720.27
2018-03-06T00:21:59.586Z,94727.16
2018-03-06T00:24:25.603Z,94726.92
2018-03-06T00:26:51.761Z,94717.00
2018-03-06T00:29:17.793Z,94725.88
2018-03-06T00:31:43.820Z,94722.60
2018-03-06T00:34:09.834Z,94714.80
2018-03-06T00:36:35.902Z,94720.92
2018-03-06T00:39:01.908Z,94720.20
2018-03-06T00:41:27.938Z,94722.65
2018-03-06T00:43:53.950Z,94718.16
2018-03-06T00:46:19.962Z,94712.94
2018-03-06T00:48:45.985Z,94707.02
2018-03-06T00:51:12.010Z,94708.45
2018-03-06T00:53:38.034Z,94704.54
2018-03-06T00:56:04.174Z,94700.35
2018-03-06T00:58:30.232Z,94705.17
2018-03-06T01:00:56.273Z,94699.69
2018-03-06T01:03:22.305Z,94696.76
2018-03-06T01:05:48.365Z,94700.35
2018-03-06T01:08:14.401Z,94690.50
2018-03-06T01:10:40.469Z,94686.13
2018-03-06T01:13:06.512Z,94679.38
2018-03-06T01:15:32.539Z,94683.16
2018-03-06T01:17:58.549Z,94669.75
2018-03-06T01:20:24.632Z,94668.52
2018-03-06T01:22:50.668Z,94672.34
2018-03-06T01:25:16.708Z,94670.34
2018-03-06T01:27:42.741Z,94674.56
2018-03-06T01:30:08.933Z,94668.60
2018-03-06T01:32:34.995Z,94665.47
2018-03-06T01:35:01.017Z,94668.97
2018-03-06T01:37:27.030Z,94662.18
2018-03-06T01:39:53.120Z,94662.80
2018-03-06T01:42:19.127Z,94655.86
2018-03-06T01:44:45.172Z,94651.95
2018-03-06T01:47:11.214Z,94650.20
2018-03-06T01:49:37.287Z,94647.95
2018-03-06T01:52:03.220Z,94651.18
2018-03-06T01:54:29.245Z,94649.80
2018-03-06T01:56:55.226Z,94639.66
2018-03-06T01:59:21.171Z,94642.02
2018-03-06T02:01:47.181Z,94653.31
2018-03-06T02:04:13.144Z,94641.97
2018-03-06T02:06:39.201Z,94640.97
2018-03-06T02:09:05.289Z,94638.35
2018-03-06T02:11:31.270Z,94642.17
2018-03-06T02:13:57.374Z,94632.05
2018-03-06T02:16:23.421Z,94631.75
2018-03-06T02:18:49.502Z,94628.53
2018-03-06T02:21:15.576Z,94630.96
2018-03-06T02:23:41.589Z,94615.92
2018-03-06T02:26:07.633Z,94623.33
2018-03-06T02:28:33.737Z,94617.62
2018-03-06T02:30:59.773Z,94617.52
2018-03-06T02:33:25.782Z,94616.72
2018-03-06T02:35:51.790Z,94619.89
2018-03-06T02:38:17.836Z,94611.48
2018-03-06T02:40:43.832Z,94603.59
2018-03-06T02:43:09.871Z,94610.81
2018-03-06T02:45:35.897Z,94601.34
2018-03-06T02:48:01.901Z,94607.23
2018-03-06T02:50:27.921Z,94599.83
2018-03-06T02:52:53.960Z,94605.72
2018-03-06T02:55:20.050Z,94594.36
2018-03-06T02:57:46.056Z,94606.41
2018-03-06T03:00:12.058Z,94609.69
2018-03-06T03:02:38.072Z,94607.67
2018-03-06T03:05:04.333Z,94608.33
2018-03-06T03:07:30.358Z,94606.91
2018-03-06T03:09:56.414Z,94604.36
2018-03-06T03:12:22.465Z,94600.83
2018-03-06T03:14:48.514Z,94591.00
2018-03-06T03:17:14.497Z,94593.72
2018-03-06T03:19:40.484Z,94588.98
2018-03-06T03:22:06.603Z,94586.73
2018-03-06T03:24:32.580Z,94593.12
2018-03-06T03:26:58.618Z,94587.31
2018-03-06T03:29:24.626Z,94589.63
2018-03-06T03:31:50.650Z,94591.81
2018-03-06T03:34:16.657Z,94587.26
2018-03-06T03:36:42.712Z,94578.30
2018-03-06T03:39:08.721Z,94581.87
2018-03-06T03:41:34.815Z,94577.50
2018-03-06T03:44:00.838Z,94577.41
2018-03-06T03:46:26.833Z,94573.52
2018-03-06T03:48:52.879Z,94573.52
2018-03-06T03:51:18.970Z,94567.26
2018-03-06T03:53:44.996Z,94569.52
2018-03-06T03:56:10.966Z,94564.03
2018-03-06T03:58:37.000Z,94570.52
2018-03-06T04:01:03.006Z,94568.80
2018-03-06T04:03:29.049Z,94562.80
2018-03-06T04:05:55.060Z,94561.62
2018-03-06T04:08:21.150Z,94569.92
2018-03-06T04:10:47.102Z,94565.48
2018-03-06T04:13:13.134Z,94563.12
2018-03-06T04:15:39.165Z,94566.34
2018-03-06T04:18:05.192Z,94570.52
2018-03-06T04:20:31.206Z,94567.89
2018-03-06T04:22:57.225Z,94573.66
2018-03-06T04:25:23.293Z,94566.86
2018-03-06T04:27:49.337Z,94569.88
2018-03-06T04:30:15.489Z,94578.17
2018-03-06T04:32:41.502Z,94575.72
2018-03-06T04:35:07.518Z,94571.38
2018-03-06T04:37:33.589Z,94570.30
2018-03-06T04:39:59.598Z,94568.16
2018-03-06T04:42:25.594Z,94567.66
2018-03-06T04:44:51.603Z,94565.64
2018-03-06T04:47:17.603Z,94561.64
2018-03-06T04:49:43.613Z,94559.94
2018-03-06T04:52:10.096Z,94561.33
2018-03-06T04:54:36.154Z,94557.67
2018-03-06T04:57:02.255Z,94556.52
2018-03-06T04:59:28.296Z,94549.34
2018-03-06T05:01:54.335Z,94553.51
2018-03-06T05:04:20.397Z,94547.59
2018-03-06T05:06:46.473Z,94552.86
2018-03-06T05:09:12.511Z,94552.94
2018-03-06T05:11:38.529Z,94548.90
2018-03-06T05:14:04.595Z,94545.92
2018-03-06T05:16:30.659Z,94535.91
2018-03-06T05:18:56.701Z,94538.03
2018-03-06T05:21:22.721Z,94542.31
2018-03-06T05:23:48.726Z,94540.50
2018-03-06T05:26:14.797Z,94544.84
2018-03-06T05:28:40.829Z,94535.84
2018-03-06T05:31:06.887Z,94534.83
2018-03-06T05:33:32.900Z,94531.42
2018-03-06T05:35:58.921Z,94537.14
2018-03-06T05:38:24.936Z,94537.91
2018-03-06T05:40:50.981Z,94530.91
2018-03-06T05:43:16.991Z,94527.75
2018-03-06T05:45:43.029Z,94532.31
2018-03-06T05:48:09.072Z,94532.56
2018-03-06T05:50:35.149Z,94536.45
2018-03-06T05:53:01.186Z,94531.94
2018-03-06T05:55:27.224Z,94530.14
2018-03-06T05:57:53.303Z,94533.19
2018-03-06T06:00:19.400Z,94526.94
2018-03-06T06:02:45.456Z,94527.42
2018-03-06T06:05:11.522Z,94531.70
2018-03-06T06:07:37.609Z,94525.31
2018-03-06T06:10:03.784Z,94523.17
2018-03-06T06:12:30.650Z,94525.34
2018-03-06T06:14:56.752Z,94526.21
2018-03-06T06:17:22.753Z,94524.53
2018-03-06T06:19:48.776Z,94520.59
2018-03-06T06:22:14.828Z,94515.53
2018-03-06T06:24:41.008Z,94518.06
2018-03-06T06:27:07.066Z,94516.61
2018-03-06T06:29:33.086Z,94516.46
2018-03-06T06:31:59.092Z,94516.00
2018-03-06T06:34:25.117Z,94521.90
2018-03-06T06:36:51.140Z,94520.37
2018-03-06T06:39:17.078Z,94512.44
2018-03-06T06:41:43.127Z,94517.17
2018-03-06T06:44:09.090Z,94518.14
2018-03-06T06:46:35.090Z,94518.66
2018-03-06T06:49:01.136Z,94508.06
2018-03-06T06:51:27.142Z,94505.44
2018-03-06T06:53:53.184Z,94507.07
2018-03-06T06:56:19.161Z,94504.56
2018-03-06T06:58:45.200Z,94502.78
2018-03-06T07:01:11.236Z,94496.86
2018-03-06T07:03:37.242Z,94495.19
2018-03-06T07:06:03.242Z,94495.77
2018-03-06T07:08:29.296Z,94494.11
2018-03-06T07:10:55.328Z,94490.95
2018-03-06T07:13:21.436Z,94492.30
2018-03-06T07:15:47.692Z,94494.44
2018-03-06T07:18:13.693Z,94502.27
2018-03-06T07:20:39.744Z,94498.22
2018-03-06T07:23:05.757Z,94500.17
2018-03-06T07:25:31.809Z,94502.45
2018-03-06T07:27:57.836Z,94506.77
2018-03-06T07:30:23.848Z,94506.88
2018-03-06T07:32:49.913Z,94502.33
2018-03-06T07:35:15.893Z,94497.27
2018-03-06T07:37:41.865Z,94505.70
2018-03-06T07:40:07.872Z,94500.22
2018-03-06T07:42:33.876Z,94496.39
2018-03-06T07:44:59.926Z,94492.50
2018-03-06T07:47:25.996Z,94495.28
2018-03-06T07:49:52.024Z,94499.86
2018-03-06T07:52:18.114Z,94495.20
2018-03-06T07:54:44.168Z,94495.87
2018-03-06T07:57:10.112Z,94498.22
2018-03-06T07:59:36.149Z,94490.91
2018-03-06T08:02:02.124Z,94493.94
2018-03-06T08:04:28.316Z,94493.83
2018-03-06T08:06:54.322Z,94491.92
2018-03-06T08:09:20.313Z,94500.13
2018-03-06T08:11:46.384Z,94493.59
2018-03-06T08:14:12.429Z,94491.91
2018-03-06T08:16:38.491Z,94482.60
2018-03-06T08:19:04.505Z,94487.92
2018-03-06T08:21:30.532Z,94486.23
2018-03-06T08:23:56.577Z,94484.73
2018-03-06T08:26:22.601Z,94484.73
2018-03-06T08:28:48.554Z,94479.53
2018-03-06T08:31:14.597Z,94485.03
2018-03-06T08:33:40.629Z,94483.50
2018-03-06T08:36:06.633Z,94478.17
2018-03-06T08:38:32.637Z,94476.48
2018-03-06T08:40:58.630Z,94478.17
2018-03-06T08:43:24.669Z,94478.23
2018-03-06T08:45:50.686Z,94481.05
2018-03-06T08:48:16.705Z,94483.43
2018-03-06T08:50:42.710Z,94486.26
2018-03-06T08:53:08.761Z,94481.74
2018-03-06T08:55:34.761Z,94482.75
2018-03-06T08:58:00.777Z,94483.26
2018-03-06T09:00:26.789Z,94486.55
2018-03-06T09:02:52.841Z,94479.46
2018-03-06T09:05:18.845Z,94482.91
2018-03-06T09:07:44.849Z,94481.22
2018-03-06T09:10:10.830Z,94483.73
2018-03-06T09:12:36.857Z,94485.05
2018-03-06T09:15:03.045Z,94474.42
2018-03-06T09:17:29.095Z,94490.62
2018-03-06T09:19:55.097Z,94487.64
2018-03-06T09:22:21.098Z,94492.21
2018-03-06T09:24:47.118Z,94488.17
2018-03-06T09:27:13.165Z,94488.92
2018-03-06T09:29:39.228Z,94483.27
2018-03-06T09:32:05.245Z,94486.56
2018-03-06T09:34:31.274Z,94479.24
2018-03-06T09:36:57.287Z,94479.98
2018-03-06T09:39:23.285Z,94472.05
2018-03-06T09:41:49.279Z,94478.29
2018-03-06T09:44:15.321Z,94472.54
2018-03-06T09:46:41.322Z,94474.06
2018-03-06T09:49:07.313Z,94477.09
2018-03-06T09:51:33.333Z,94472.20
2018-03-06T09:53:59.346Z,94465.30
2018-03-06T09:56:25.373Z,94464.32
2018-03-06T09:58:51.366Z,94467.48
2018-03-06T10:01:17.382Z,94457.64
2018-03-06T10:03:43.425Z,94457.98
2018-03-06T10:06:09.429Z,94462.88
2018-03-06T10:08:35.459Z,94461.94
2018-03-06T10:11:01.437Z,94459.50
2018-03-06T10:13:27.470Z,94451.32
2018-03-06T10:15:53.476Z,94446.28
2018-03-06T10:18:19.533Z,94455.44
2018-03-06T10:20:45.530Z,94464.44
2018-03-06T10:23:11.537Z,94458.14
2018-03-06T10:25:37.546Z,94457.78
2018-03-06T10:28:03.554Z,94465.79
2018-03-06T10:30:29.556Z,94465.27
2018-03-06T10:32:55.538Z,94464.17
2018-03-06T10:35:21.629Z,94463.88
2018-03-06T10:37:47.643Z,94473.94
2018-03-06T10:40:13.678Z,94456.30
2018-03-06T10:42:39.688Z,94453.76
2018-03-06T10:45:05.768Z,94458.23
2018-03-06T10:47:31.793Z,94454.90
2018-03-06T10:49:57.812Z,94448.42
2018-03-06T10:52:23.860Z,94450.33
2018-03-06T10:54:49.853Z,94448.55
2018-03-06T10:57:15.937Z,94439.76
2018-03-06T10:59:41.897Z,94445.06
2018-03-06T11:02:13.910Z,94434.80
2018-03-06T11:04:39.927Z,94432.60
2018-03-06T11:07:05.966Z,94432.56
2018-03-06T11:09:31.970Z,94432.61
2018-03-06T11:11:57.987Z,94420.45
2018-03-06T11:14:24.082Z,94427.19
2018-03-06T11:16:50.089Z,94433.06
2018-03-06T11:19:16.122Z,94430.80
2018-03-06T11:21:42.228Z,94426.36
2018-03-06T11:24:08.280Z,94418.39
2018-03-06T11:26:34.399Z,94423.56
2018-03-06T11:29:00.387Z,94422.58
2018-03-06T11:31:26.451Z,94414.55
2018-03-06T11:33:52.437Z,94411.70
2018-03-06T11:36:18.491Z,94414.92
2018-03-06T11:38:44.501Z,94412.47
2018-03-06T11:41:10.533Z,94416.98
2018-03-06T11:43:36.544Z,94414.09
2018-03-06T11:46:02.637Z,94409.77
2018-03-06T11:48:28.650Z,94406.43
2018-03-06T11:50:54.658Z,94398.56
2018-03-06T11:53:20.726Z,94402.53
2018-03-06T11:55:46.769Z,94400.97
2018-03-06T11:58:12.849Z,94397.28
2018-03-06T12:00:38.885Z,94400.25
2018-03-06T12:03:04.886Z,94394.62
2018-03-06T12:05:30.908Z,94392.69
2018-03-06T12:07:57.025Z,94395.22
2018-03-06T12:10:23.002Z,94386.58
2018-03-06T12:12:49.002Z,94383.10
2018-03-06T12:15:15.059Z,94381.04
2018-03-06T12:17:41.065Z,94384.56
2018-03-06T12:20:07.073Z,94384.94
2018-03-06T12:22:33.055Z,94384.51
2018-03-06T12:24:59.085Z,94377.39
2018-03-06T12:27:25.111Z,94374.78
2018-03-06T12:29:51.140Z,94372.48
2018-03-06T12:32:17.157Z,94369.88
2018-03-06T12:34:43.185Z,94369.06
2018-03-06T12:37:09.171Z,94368.27
2018-03-06T12:39:35.176Z,94368.05
2018-03-06T12:42:01.223Z,94367.36
2018-03-06T12:44:27.219Z,94370.80
2018-03-06T12:46:53.217Z,94371.19
2018-03-06T12:49:19.273Z,94368.89
2018-03-06T12:51:45.300Z,94363.26
2018-03-06T12:54:11.286Z,94365.63
2018-03-06T12:56:37.297Z,94364.17
2018-03-06T12:59:03.312Z,94366.23
2018-03-06T13:01:29.329Z,94367.64
2018-03-06T13:03:55.309Z,94366.10
2018-03-06T13:06:21.378Z,94369.33
2018-03-06T13:08:47.400Z,94366.31
2018-03-06T13:11:13.476Z,94364.98
2018-03-06T13:13:39.489Z,94367.13
2018-03-06T13:16:05.484Z,94363.07
2018-03-06T13:18:31.517Z,94364.52
2018-03-06T13:20:57.552Z,94359.11
2018-03-06T13:23:23.506Z,94356.29
2018-03-06T13:25:49.502Z,94364.07
2018-03-06T13:28:15.569Z,94361.80
2018-03-06T13:30:41.605Z,94363.38
2018-03-06T13:33:07.613Z,94365.48
2018-03-06T13:35:33.614Z,94364.11
2018-03-06T13:37:59.638Z,94356.40
2018-03-06T13:40:25.641Z,94360.80
2018-03-06T13:42:51.708Z,94359.12
2018-03-06T13:45:17.713Z,94365.37
2018-03-06T13:47:43.685Z,94359.23
2018-03-06T13:50:09.688Z,94358.97
2018-03-06T13:52:35.871Z,94357.38
2018-03-06T13:55:01.903Z,94357.06
2018-03-06T13:57:27.890Z,94355.84
2018-03-06T13:59:53.998Z,94362.43
2018-03-06T14:02:20.031Z,94358.84
2018-03-06T14:04:46.050Z,94359.47
2018-03-06T14:07:12.143Z,94353.45
2018-03-06T14:09:38.240Z,94357.26
2018-03-06T14:12:04.268Z,94361.31
2018-03-06T14:14:30.783Z,94351.95
2018-03-06T14:16:56.874Z,94351.23
2018-03-06T14:19:22.950Z,94344.22
2018-03-06T14:21:48.956Z,94348.56
2018-03-06T14:24:15.089Z,94342.02
2018-03-06T14:26:41.149Z,94342.75
2018-03-06T14:29:07.354Z,94344.13
2018-03-06T14:31:33.424Z,94347.92
2018-03-06T14:33:59.475Z,94348.88
2018-03-06T14:36:25.519Z,94352.76
2018-03-06T14:38:51.533Z,94350.88
2018-03-06T14:41:17.616Z,94348.63
2018-03-06T14:43:43.638Z,94348.92
2018-03-06T14:46:10.038Z,94347.75
2018-03-06T14:48:36.143Z,94351.26
2018-03-06T14:51:02.175Z,94347.91
2018-03-06T14:53:28.310Z,94345.09
2018-03-06T14:55:54.356Z,94347.27
2018-03-06T14:58:20.507Z,94347.53
2018-03-06T15:00:46.568Z,94342.68
2018-03-06T15:03:12.785Z,94331.95
2018-03-06T15:05:38.985Z,94334.98
2018-03-06T15:08:05.039Z,94337.59
2018-03-06T15:10:31.105Z,94338.47
2018-03-06T15:12:57.142Z,94336.67
2018-03-06T15:15:23.164Z,94335.64
2018-03-06T15:17:49.231Z,94334.44
2018-03-06T15:20:15.262Z,94334.70
2018-03-06T15:22:41.311Z,94332.92
2018-03-06T15:25:07.406Z,94331.89
2018-03-06T15:27:33.428Z,94329.61
2018-03-06T15:30:03.454Z,94329.94
2018-03-06T15:32:29.466Z,94331.61
2018-03-06T15:34:55.456Z,94333.30
2018-03-06T15:37:22.248Z,94341.58
2018-03-06T15:40:01.653Z,94337.94
2018-03-06T15:42:27.653Z,94338.59
2018-03-06T15:44:53.664Z,94341.58
2018-03-06T15:47:19.680Z,94345.21
2018-03-06T15:49:45.726Z,94337.87
2018-03-06T15:52:11.763Z,94344.67
2018-03-06T15:54:37.848Z,94338.74
2018-03-06T15:57:03.790Z,94343.09
2018-03-06T15:59:29.823Z,94341.69
2018-03-06T16:01:55.866Z,94336.38
2018-03-06T16:04:21.898Z,94348.46
2018-03-06T16:06:47.954Z,94345.33
2018-03-06T16:09:13.959Z,94344.41
2018-03-06T16:11:40.002Z,94347.16
2018-03-06T16:14:06.008Z,94349.11
2018-03-06T16:16:32.084Z,94360.52
2018-03-06T16:18:58.173Z,94357.04
2018-03-06T16:21:24.177Z,94360.73
2018-03-06T16:23:50.390Z,94363.97
2018-03-06T16:26:16.541Z,94361.77
2018-03-06T16:28:42.692Z,94368.07
2018-03-06T16:31:08.806Z,94369.02
2018-03-06T16:33:34.837Z,94370.61
2018-03-06T16:36:00.910Z,94369.47
2018-03-06T16:38:26.954Z,94372.02
2018-03-06T16:40:53.191Z,94380.60
2018-03-06T16:43:19.248Z,94385.31
2018-03-06T16:45:45.358Z,94382.77
2018-03-06T16:48:11.413Z,94385.17
2018-03-06T16:50:37.486Z,94378.86
2018-03-06T16:53:03.466Z,94383.87
2018-03-06T16:55:29.566Z,94387.59
2018-03-06T16:57:55.622Z,94386.60
2018-03-06T17:00:21.843Z,94390.77
2018-03-06T17:02:47.777Z,94391.04
2018-03-06T17:05:13.787Z,94393.82
2018-03-06T17:07:39.874Z,94394.02
2018-03-06T17:10:05.902Z,94394.17
2018-03-06T17:12:31.942Z,94404.52
2018-03-06T17:14:58.262Z,94402.46
2018-03-06T17:17:24.309Z,94406.77
2018-03-06T17:19:50.514Z,94406.65
2018-03-06T17:22:16.567Z,94407.03
2018-03-06T17:24:42.663Z,94410.71
2018-03-06T17:27:08.792Z,94402.08
2018-03-06T17:29:34.832Z,94410.65
2018-03-06T17:32:00.830Z,94409.34
2018-03-06T17:34:26.940Z,94407.00
2018-03-06T17:36:52.967Z,94410.94
2018-03-06T17:39:19.079Z,94411.28
2018-03-06T17:41:45.101Z,94415.75
2018-03-06T17:44:11.134Z,94420.26
2018-03-06T17:46:37.253Z,94421.87
2018-03-06T17:49:03.239Z,94421.82
2018-03-06T17:51:29.286Z,94422.52
2018-03-06T17:53:55.356Z,94417.00
2018-03-06T17:56:21.365Z,94423.66
2018-03-06T17:58:47.393Z,94419.03
2018-03-06T18:01:13.408Z,94417.00
2018-03-06T18:03:39.880Z,94419.16
2018-03-06T18:06:05.903Z,94421.82
2018-03-06T18:08:31.914Z,94422.05
2018-03-06T18:10:57.966Z,94421.19
2018-03-06T18:13:23.979Z,94419.72
2018-03-06T18:15:50.042Z,94424.95
2018-03-06T18:18:16.045Z,94409.02
2018-03-06T18:20:41.992Z,94418.56
2018-03-06T18:23:08.076Z,94424.13
2018-03-06T18:25:34.092Z,94417.83
2018-03-06T18:28:00.119Z,94422.52
2018-03-06T18:30:26.165Z,94414.67
2018-03-06T18:32:52.413Z,94420.13
2018-03-06T18:35:18.434Z,94421.50
2018-03-06T18:37:44.519Z,94414.93
2018-03-06T18:40:10.595Z,94422.65
2018-03-06T18:42:36.685Z,94416.84
2018-03-06T18:45:03.042Z,94411.06
2018-03-06T18:47:29.061Z,94414.70
2018-03-06T18:50:03.110Z,94420.61
2018-03-06T18:52:29.178Z,94415.47
2018-03-06T18:54:55.214Z,94417.34
2018-03-06T18:57:21.243Z,94416.68
2018-03-06T18:59:47.190Z,94416.30
2018-03-06T19:02:25.561Z,94411.31
2018-03-06T19:05:05.024Z,94418.77
2018-03-06T19:07:31.265Z,94408.23
2018-03-06T19:09:57.279Z,94405.83
2018-03-06T19:12:23.345Z,94408.49
2018-03-06T19:14:49.370Z,94407.03
2018-03-06T19:17:15.447Z,94404.34
2018-03-06T19:19:41.460Z,94407.89
2018-03-06T19:22:07.490Z,94406.37
2018-03-06T19:24:33.507Z,94413.54
2018-03-06T19:26:59.497Z,94412.55
2018-03-06T19:29:26.223Z,94415.63
2018-03-06T19:31:52.287Z,94420.74
2018-03-06T19:34:18.329Z,94417.66
2018-03-06T19:36:44.353Z,94418.36
2018-03-06T19:39:10.399Z,94419.06
2018-03-06T19:41:36.424Z,94420.14
2018-03-06T19:44:02.457Z,94425.73
2018-03-06T19:46:28.493Z,94426.77
2018-03-06T19:48:54.548Z,94427.02
2018-03-06T19:51:20.649Z,94428.70
2018-03-06T19:53:46.687Z,94432.52
2018-03-06T19:56:13.137Z,94430.07
2018-03-06T19:58:39.392Z,94438.28
2018-03-06T20:01:06.367Z,94440.27
2018-03-06T20:03:32.606Z,94445.30
2018-03-06T20:05:58.827Z,94442.13
2018-03-06T20:08:24.797Z,94449.14
2018-03-06T20:10:50.951Z,94448.89
2018-03-06T20:13:17.024Z,94441.02
2018-03-06T20:15:43.167Z,94451.80
2018-03-06T20:18:09.329Z,94448.81
2018-03-06T20:20:35.515Z,94445.30
2018-03-06T20:23:01.578Z,94442.13
2018-03-06T20:25:33.811Z,94446.75
2018-03-06T20:27:59.976Z,94439.50
2018-03-06T20:30:31.960Z,94441.61
2018-03-06T20:33:04.151Z,94450.33
2018-03-06T20:35:30.192Z,94450.58
2018-03-06T20:37:56.226Z,94449.75
2018-03-06T20:40:28.178Z,94439.44
2018-03-06T20:42:54.170Z,94446.36
2018-03-06T20:45:20.407Z,94450.90
2018-03-06T20:47:46.447Z,94455.98
2018-03-06T20:50:12.552Z,94454.07
2018-03-06T20:52:44.720Z,94451.87
2018-03-06T20:55:10.750Z,94444.73
2018-03-06T20:57:37.126Z,94450.51
2018-03-06T21:00:03.456Z,94450.98
2018-03-06T21:02:55.589Z,94447.52
2018-03-06T21:13:52.689Z,94440.80
2018-03-06T21:16:18.716Z,94443.98
2018-03-06T21:18:44.821Z,94447.12
2018-03-06T21:21:10.854Z,94445.23
2018-03-06T21:23:36.821Z,94445.62
2018-03-06T21:26:02.870Z,94444.92
2018-03-06T21:28:28.943Z,94446.55
2018-03-06T21:30:54.949Z,94445.41
2018-03-06T21:33:20.982Z,94445.70
2018-03-06T21:35:47.924Z,94449.75
2018-03-06T21:38:13.940Z,94453.27
2018-03-06T21:40:39.964Z,94446.47
2018-03-06T21:43:05.993Z,94458.21
2018-03-06T21:45:31.974Z,94454.46
2018-03-06T21:47:57.984Z,94448.56
2018-03-06T21:50:24.101Z,94455.70
2018-03-06T21:52:50.174Z,94444.45
2018-03-06T21:55:16.188Z,94444.73
2018-03-06T21:57:42.201Z,94449.80
2018-03-06T22:00:08.228Z,94450.87
2018-03-06T22:02:34.255Z,94452.59
2018-03-06T22:05:00.333Z,94456.28
2018-03-06T22:07:26.402Z,94457.11
2018-03-06T22:09:52.440Z,94460.63
2018-03-06T22:12:18.488Z,94463.07
2018-03-06T22:14:44.550Z,94457.72
2018-03-06T22:17:10.561Z,94461.68
2018-03-06T22:19:36.637Z,94459.53
2018-03-06T22:22:02.673Z,94460.36
2018-03-06T22:24:28.697Z,94461.45
2018-03-06T22:26:54.829Z,94457.02
2018-03-06T22:29:20.875Z,94454.67
2018-03-06T22:31:46.924Z,94449.59
2018-03-06T22:34:12.957Z,94444.64
2018-03-06T22:36:38.975Z,94457.56
2018-03-06T22:39:04.987Z,94454.52
2018-03-06T22:41:30.988Z,94452.77
2018-03-06T22:43:57.064Z,94459.87
2018-03-06T22:46:23.100Z,94462.16
2018-03-06T22:48:49.117Z,94463.64
2018-03-06T22:51:15.248Z,94461.82
2018-03-06T22:53:41.333Z,94462.47
2018-03-06T22:56:07.365Z,94458.14
2018-03-06T22:58:33.404Z,94461.89
2018-03-06T23:00:59.525Z,94460.20
2018-03-06T23:03:25.536Z,94460.38
2018-03-06T23:05:51.551Z,94463.23
2018-03-06T23:08:17.583Z,94462.78
2018-03-06T23:10:43.553Z,94463.31
2018-03-06T23:13:09.565Z,94467.23
2018-03-06T23:15:35.620Z,94467.55
2018-03-06T23:18:01.602Z,94466.25
2018-03-06T23:20:27.681Z,94465.87
2018-03-06T23:22:53.702Z,94462.83
2018-03-06T23:25:19.681Z,94460.94
2018-03-06T23:27:45.689Z,94466.72
2018-03-06T23:30:11.679Z,94464.27
2018-03-06T23:32:37.723Z,94467.44
2018-03-06T23:35:03.950Z,94437.81
2018-03-06T23:37:29.915Z,94471.13
2018-03-06T23:39:55.926Z,94470.53
2018-03-06T23:42:22.010Z,94472.20
2018-03-06T23:44:48.042Z,94478.22
2018-03-06T23:47:14.041Z,94478.76
2018-03-06T23:49:40.081Z,94484.96
2018-03-06T23:52:06.085Z,94487.48
2018-03-06T23:54:32.101Z,94480.58
2018-03-06T23:56:58.097Z,94483.63
2018-03-06T23:59:24.128Z,94478.13
